sensor_id;sensor_type;location;lat;lon;timestamp;pressure;altitude;pressure_sealevel;temperature
34310;BMP280;61664;48.112;11.662;2023-09-08T00:00:20;95827.25;;;20.02
34310;BMP280;61664;48.112;11.662;2023-09-08T00:02:47;95828.22;;;19.99
34310;BMP280;61664;48.112;11.662;2023-09-08T00:05:14;95824.81;;;19.99
34310;BMP280;61664;48.112;11.662;2023-09-08T00:07:41;95830.69;;;20.03
34310;BMP280;61664;48.112;11.662;2023-09-08T00:10:09;95829.97;;;20.02
34310;BMP280;61664;48.112;11.662;2023-09-08T00:12:38;95828.22;;;19.99
34310;BMP280;61664;48.112;11.662;2023-09-08T00:15:06;95821.94;;;19.91
34310;BMP280;61664;48.112;11.662;2023-09-08T00:17:33;95827.09;;;19.95
34310;BMP280;61664;48.112;11.662;2023-09-08T00:20:00;95830.09;;;19.91
34310;BMP280;61664;48.112;11.662;2023-09-08T00:22:27;95823.47;;;19.86
34310;BMP280;61664;48.112;11.662;2023-09-08T00:24:55;95815.31;;;19.86
34310;BMP280;61664;48.112;11.662;2023-09-08T00:27:22;95816.28;;;19.89
34310;BMP280;61664;48.112;11.662;2023-09-08T00:29:48;95813.06;;;19.91
34310;BMP280;61664;48.112;11.662;2023-09-08T00:32:16;95813.81;;;19.91
34310;BMP280;61664;48.112;11.662;2023-09-08T00:34:43;95815.28;;;19.92
34310;BMP280;61664;48.112;11.662;2023-09-08T00:37:10;95816.28;;;19.89
34310;BMP280;61664;48.112;11.662;2023-09-08T00:39:38;95815.44;;;19.81
34310;BMP280;61664;48.112;11.662;2023-09-08T00:42:06;95813.19;;;19.79
34310;BMP280;61664;48.112;11.662;2023-09-08T00:44:34;95806.63;;;19.75
34310;BMP280;61664;48.112;11.662;2023-09-08T00:47:01;95809.13;;;19.73
34310;BMP280;61664;48.112;11.662;2023-09-08T00:49:28;95808.28;;;19.59
34310;BMP280;61664;48.112;11.662;2023-09-08T00:51:55;95809.81;;;19.55
34310;BMP280;61664;48.112;11.662;2023-09-08T00:54:23;95815.50;;;19.51
34310;BMP280;61664;48.112;11.662;2023-09-08T00:56:56;95818.75;;;19.50
34310;BMP280;61664;48.112;11.662;2023-09-08T00:59:24;95811.69;;;19.41
34310;BMP280;61664;48.112;11.662;2023-09-08T01:01:52;95807.25;;;19.38
34310;BMP280;61664;48.112;11.662;2023-09-08T01:04:20;95815.38;;;19.38
34310;BMP280;61664;48.112;11.662;2023-09-08T01:06:49;95810.25;;;19.34
34310;BMP280;61664;48.112;11.662;2023-09-08T01:09:17;95800.19;;;19.29
34310;BMP280;61664;48.112;11.662;2023-09-08T01:11:45;95811.28;;;19.31
34310;BMP280;61664;48.112;11.662;2023-09-08T01:14:13;95801.03;;;19.24
34310;BMP280;61664;48.112;11.662;2023-09-08T01:16:40;95811.78;;;19.30
34310;BMP280;61664;48.112;11.662;2023-09-08T01:19:13;95805.63;;;19.29
34310;BMP280;61664;48.112;11.662;2023-09-08T01:27:49;95810.19;;;19.16
34310;BMP280;61664;48.112;11.662;2023-09-08T01:30:17;95810.28;;;19.10
34310;BMP280;61664;48.112;11.662;2023-09-08T01:32:45;95807.09;;;19.06
34310;BMP280;61664;48.112;11.662;2023-09-08T01:35:13;95801.94;;;19.02
34310;BMP280;61664;48.112;11.662;2023-09-08T01:37:45;95795.59;;;19.00
34310;BMP280;61664;48.112;11.662;2023-09-08T01:40:13;95801.28;;;18.96
34310;BMP280;61664;48.112;11.662;2023-09-08T01:42:40;95805.22;;;18.95
34310;BMP280;61664;48.112;11.662;2023-09-08T01:45:08;95804.47;;;18.95
34310;BMP280;61664;48.112;11.662;2023-09-08T01:47:37;95808.66;;;18.96
34310;BMP280;61664;48.112;11.662;2023-09-08T01:50:04;95799.38;;;18.86
34310;BMP280;61664;48.112;11.662;2023-09-08T01:52:31;95801.34;;;18.85
34310;BMP280;61664;48.112;11.662;2023-09-08T01:54:58;95796.19;;;18.87
34310;BMP280;61664;48.112;11.662;2023-09-08T01:57:25;95784.25;;;18.71
34310;BMP280;61664;48.112;11.662;2023-09-08T01:59:52;95794.75;;;18.81
34310;BMP280;61664;48.112;11.662;2023-09-08T02:02:18;95799.16;;;18.84
34310;BMP280;61664;48.112;11.662;2023-09-08T02:04:46;95793.75;;;18.84
34310;BMP280;61664;48.112;11.662;2023-09-08T02:07:13;95792.81;;;18.76
34310;BMP280;61664;48.112;11.662;2023-09-08T02:09:40;95780.31;;;18.73
34310;BMP280;61664;48.112;11.662;2023-09-08T02:12:08;95785.50;;;18.70
34310;BMP280;61664;48.112;11.662;2023-09-08T02:14:35;95784.75;;;18.70
34310;BMP280;61664;48.112;11.662;2023-09-08T02:17:02;95780.06;;;18.70
34310;BMP280;61664;48.112;11.662;2023-09-08T02:19:30;95783.28;;;18.69
34310;BMP280;61664;48.112;11.662;2023-09-08T02:21:57;95778.13;;;18.65
34310;BMP280;61664;48.112;11.662;2023-09-08T02:24:23;95790.44;;;18.66
34310;BMP280;61664;48.112;11.662;2023-09-08T02:26:50;95787.97;;;18.68
34310;BMP280;61664;48.112;11.662;2023-09-08T02:29:18;95797.06;;;18.65
34310;BMP280;61664;48.112;11.662;2023-09-08T02:31:45;95797.31;;;18.67
34310;BMP280;61664;48.112;11.662;2023-09-08T02:34:12;95806.66;;;18.66
34310;BMP280;61664;48.112;11.662;2023-09-08T02:36:39;95800.06;;;18.62
34310;BMP280;61664;48.112;11.662;2023-09-08T02:39:06;95801.03;;;18.64
34310;BMP280;61664;48.112;11.662;2023-09-08T02:41:34;95801.53;;;18.63
34310;BMP280;61664;48.112;11.662;2023-09-08T02:44:01;95793.13;;;18.66
34310;BMP280;61664;48.112;11.662;2023-09-08T02:46:28;95800.81;;;18.62
34310;BMP280;61664;48.112;11.662;2023-09-08T02:48:55;95795.19;;;18.55
34310;BMP280;61664;48.112;11.662;2023-09-08T02:51:22;95784.41;;;18.49
34310;BMP280;61664;48.112;11.662;2023-09-08T02:53:49;95792.25;;;18.53
34310;BMP280;61664;48.112;11.662;2023-09-08T02:56:16;95794.25;;;18.47
34310;BMP280;61664;48.112;11.662;2023-09-08T02:58:43;95779.84;;;18.33
34310;BMP280;61664;48.112;11.662;2023-09-08T03:01:16;95797.47;;;18.45
34310;BMP280;61664;48.112;11.662;2023-09-08T03:03:46;95795.22;;;18.49
34310;BMP280;61664;48.112;11.662;2023-09-08T03:06:18;95788.91;;;18.41
34310;BMP280;61664;48.112;11.662;2023-09-08T03:08:45;95778.41;;;18.26
34310;BMP280;61664;48.112;11.662;2023-09-08T03:11:13;95798.00;;;18.38
34310;BMP280;61664;48.112;11.662;2023-09-08T03:13:39;95791.13;;;18.37
34310;BMP280;61664;48.112;11.662;2023-09-08T03:16:08;95785.03;;;18.31
34310;BMP280;61664;48.112;11.662;2023-09-08T03:18:36;95785.25;;;18.33
34310;BMP280;61664;48.112;11.662;2023-09-08T03:21:05;95789.66;;;18.36
34310;BMP280;61664;48.112;11.662;2023-09-08T03:23:39;95796.81;;;18.33
34310;BMP280;61664;48.112;11.662;2023-09-08T03:26:07;95793.59;;;18.35
34310;BMP280;61664;48.112;11.662;2023-09-08T03:28:36;95796.31;;;18.35
34310;BMP280;61664;48.112;11.662;2023-09-08T03:31:04;95779.16;;;18.27
34310;BMP280;61664;48.112;11.662;2023-09-08T03:33:31;95791.19;;;18.31
34310;BMP280;61664;48.112;11.662;2023-09-08T03:35:59;95791.94;;;18.26
34310;BMP280;61664;48.112;11.662;2023-09-08T03:38:26;95800.56;;;18.25
34310;BMP280;61664;48.112;11.662;2023-09-08T03:40:53;95791.72;;;18.19
34310;BMP280;61664;48.112;11.662;2023-09-08T03:43:20;95787.31;;;18.16
34310;BMP280;61664;48.112;11.662;2023-09-08T03:45:47;95791.72;;;18.19
34310;BMP280;61664;48.112;11.662;2023-09-08T03:48:14;95793.22;;;18.20
34310;BMP280;61664;48.112;11.662;2023-09-08T03:50:41;95780.69;;;18.17
34310;BMP280;61664;48.112;11.662;2023-09-08T03:53:12;95793.41;;;18.27
34310;BMP280;61664;48.112;11.662;2023-09-08T03:55:40;95787.03;;;18.25
34310;BMP280;61664;48.112;11.662;2023-09-08T03:58:07;95790.22;;;18.23
34310;BMP280;61664;48.112;11.662;2023-09-08T04:00:35;95793.22;;;18.20
34310;BMP280;61664;48.112;11.662;2023-09-08T04:03:02;95801.09;;;18.18
34310;BMP280;61664;48.112;11.662;2023-09-08T04:05:30;95784.91;;;18.07
34310;BMP280;61664;48.112;11.662;2023-09-08T04:07:57;95792.50;;;18.14
34310;BMP280;61664;48.112;11.662;2023-09-08T04:10:27;95800.13;;;18.10
34310;BMP280;61664;48.112;11.662;2023-09-08T04:12:53;95794.25;;;18.06
34310;BMP280;61664;48.112;11.662;2023-09-08T04:15:20;95788.88;;;18.00
34310;BMP280;61664;48.112;11.662;2023-09-08T04:17:48;95793.06;;;18.01
34310;BMP280;61664;48.112;11.662;2023-09-08T04:20:15;95793.53;;;18.00
34310;BMP280;61664;48.112;11.662;2023-09-08T04:22:43;95799.47;;;17.98
34310;BMP280;61664;48.112;11.662;2023-09-08T04:25:11;95798.25;;;17.93
34310;BMP280;61664;48.112;11.662;2023-09-08T04:27:38;95781.81;;;17.86
34310;BMP280;61664;48.112;11.662;2023-09-08T04:30:06;95788.94;;;17.89
34310;BMP280;61664;48.112;11.662;2023-09-08T04:32:33;95796.31;;;17.88
34310;BMP280;61664;48.112;11.662;2023-09-08T04:35:00;95787.22;;;17.86
34310;BMP280;61664;48.112;11.662;2023-09-08T04:37:27;95785.28;;;17.81
34310;BMP280;61664;48.112;11.662;2023-09-08T04:39:54;95791.19;;;17.79
34310;BMP280;61664;48.112;11.662;2023-09-08T04:42:21;95796.09;;;17.81
34310;BMP280;61664;48.112;11.662;2023-09-08T04:44:49;95797.81;;;17.78
34310;BMP280;61664;48.112;11.662;2023-09-08T04:47:16;95781.41;;;17.65
34310;BMP280;61664;48.112;11.662;2023-09-08T04:49:43;95795.34;;;17.80
34310;BMP280;61664;48.112;11.662;2023-09-08T04:52:11;95803.69;;;17.88
34310;BMP280;61664;48.112;11.662;2023-09-08T04:54:38;95796.31;;;17.88
34310;BMP280;61664;48.112;11.662;2023-09-08T04:57:06;95798.47;;;17.95
34310;BMP280;61664;48.112;11.662;2023-09-08T04:59:48;95803.13;;;18.01
34310;BMP280;61664;48.112;11.662;2023-09-08T05:02:15;95807.03;;;18.05
34310;BMP280;61664;48.112;11.662;2023-09-08T05:04:43;95806.06;;;18.08
34310;BMP280;61664;48.112;11.662;2023-09-08T05:07:09;95788.84;;;18.06
34310;BMP280;61664;48.112;11.662;2023-09-08T05:09:37;95805.50;;;18.15
34310;BMP280;61664;48.112;11.662;2023-09-08T05:12:04;95807.94;;;18.19
34310;BMP280;61664;48.112;11.662;2023-09-08T05:14:31;95799.09;;;18.18
34310;BMP280;61664;48.112;11.662;2023-09-08T05:16:58;95806.69;;;18.25
34310;BMP280;61664;48.112;11.662;2023-09-08T05:19:24;95806.19;;;18.27
34310;BMP280;61664;48.112;11.662;2023-09-08T05:21:54;95813.50;;;18.38
34310;BMP280;61664;48.112;11.662;2023-09-08T05:24:22;95816.19;;;18.38
34310;BMP280;61664;48.112;11.662;2023-09-08T05:26:49;95817.66;;;18.44
34310;BMP280;61664;48.112;11.662;2023-09-08T05:29:16;95810.78;;;18.43
34310;BMP280;61664;48.112;11.662;2023-09-08T05:31:43;95812.69;;;18.48
34310;BMP280;61664;48.112;11.662;2023-09-08T05:34:10;95821.28;;;18.52
34310;BMP280;61664;48.112;11.662;2023-09-08T05:36:37;95823.22;;;18.57
34310;BMP280;61664;48.112;11.662;2023-09-08T05:39:05;95830.56;;;18.62
34310;BMP280;61664;48.112;11.662;2023-09-08T05:41:32;95822.72;;;18.59
34310;BMP280;61664;48.112;11.662;2023-09-08T05:44:01;95819.28;;;18.58
34310;BMP280;61664;48.112;11.662;2023-09-08T05:46:28;95814.16;;;18.49
34310;BMP280;61664;48.112;11.662;2023-09-08T05:48:55;95828.91;;;18.54
34310;BMP280;61664;48.112;11.662;2023-09-08T05:51:22;95831.06;;;18.61
34310;BMP280;61664;48.112;11.662;2023-09-08T05:53:49;95827.59;;;18.66
34310;BMP280;61664;48.112;11.662;2023-09-08T05:56:19;95820.97;;;18.61
34310;BMP280;61664;48.112;11.662;2023-09-08T05:58:46;95834.22;;;18.70
34310;BMP280;61664;48.112;11.662;2023-09-08T06:01:15;95843.00;;;18.77
34310;BMP280;61664;48.112;11.662;2023-09-08T06:03:42;95843.25;;;18.79
34310;BMP280;61664;48.112;11.662;2023-09-08T06:06:10;95838.31;;;18.83
34310;BMP280;61664;48.112;11.662;2023-09-08T06:08:37;95844.84;;;18.93
34310;BMP280;61664;48.112;11.662;2023-09-08T06:11:04;95828.13;;;18.94
34310;BMP280;61664;48.112;11.662;2023-09-08T06:13:31;95848.63;;;19.14
34310;BMP280;61664;48.112;11.662;2023-09-08T06:15:58;95836.28;;;19.19
34310;BMP280;61664;48.112;11.662;2023-09-08T06:18:28;95836.13;;;19.35
34310;BMP280;61664;48.112;11.662;2023-09-08T06:20:55;95842.16;;;19.47
34310;BMP280;61664;48.112;11.662;2023-09-08T06:23:22;95836.19;;;19.54
34310;BMP280;61664;48.112;11.662;2023-09-08T06:25:49;95842.16;;;19.71
34310;BMP280;61664;48.112;11.662;2023-09-08T06:28:16;95839.38;;;19.77
34310;BMP280;61664;48.112;11.662;2023-09-08T06:30:44;95837.88;;;19.81
34310;BMP280;61664;48.112;11.662;2023-09-08T06:33:11;95838.00;;;19.89
34310;BMP280;61664;48.112;11.662;2023-09-08T06:35:38;95840.13;;;19.96
34310;BMP280;61664;48.112;11.662;2023-09-08T06:38:05;95839.75;;;20.05
34310;BMP280;61664;48.112;11.662;2023-09-08T06:40:32;95846.50;;;20.17
34310;BMP280;61664;48.112;11.662;2023-09-08T06:42:59;95848.56;;;20.30
34310;BMP280;61664;48.112;11.662;2023-09-08T06:45:29;95855.00;;;20.46
34310;BMP280;61664;48.112;11.662;2023-09-08T06:47:56;95852.31;;;20.59
34310;BMP280;61664;48.112;11.662;2023-09-08T06:50:24;95853.88;;;20.73
34310;BMP280;61664;48.112;11.662;2023-09-08T06:52:51;95857.34;;;20.87
34310;BMP280;61664;48.112;11.662;2023-09-08T06:55:19;95855.19;;;20.98
34310;BMP280;61664;48.112;11.662;2023-09-08T06:57:46;95848.81;;;21.09
34310;BMP280;61664;48.112;11.662;2023-09-08T07:00:14;95858.34;;;21.29
34310;BMP280;61664;48.112;11.662;2023-09-08T07:02:44;95845.53;;;21.42
34310;BMP280;61664;48.112;11.662;2023-09-08T07:05:11;95854.94;;;21.55
34310;BMP280;61664;48.112;11.662;2023-09-08T07:07:38;95839.34;;;21.55
34310;BMP280;61664;48.112;11.662;2023-09-08T07:10:07;95850.84;;;21.74
34310;BMP280;61664;48.112;11.662;2023-09-08T07:12:35;95860.41;;;21.89
34310;BMP280;61664;48.112;11.662;2023-09-08T07:15:02;95864.63;;;22.03
34310;BMP280;61664;48.112;11.662;2023-09-08T07:17:29;95854.56;;;22.11
34310;BMP280;61664;48.112;11.662;2023-09-08T07:19:56;95842.69;;;22.21
34310;BMP280;61664;48.112;11.662;2023-09-08T07:22:23;95847.16;;;22.32
34310;BMP280;61664;48.112;11.662;2023-09-08T07:24:50;95840.41;;;22.46
34310;BMP280;61664;48.112;11.662;2023-09-08T07:27:17;95842.13;;;22.57
34310;BMP280;61664;48.112;11.662;2023-09-08T07:29:45;95843.66;;;22.65
34310;BMP280;61664;48.112;11.662;2023-09-08T07:32:14;95846.19;;;22.84
34310;BMP280;61664;48.112;11.662;2023-09-08T07:34:41;95843.34;;;22.97
34310;BMP280;61664;48.112;11.662;2023-09-08T07:37:08;95849.44;;;23.11
34310;BMP280;61664;48.112;11.662;2023-09-08T07:39:35;95837.34;;;23.20
34310;BMP280;61664;48.112;11.662;2023-09-08T07:42:03;95836.91;;;23.36
34310;BMP280;61664;48.112;11.662;2023-09-08T07:44:30;95836.25;;;23.51
34310;BMP280;61664;48.112;11.662;2023-09-08T07:46:57;95844.53;;;23.74
34310;BMP280;61664;48.112;11.662;2023-09-08T07:49:24;95843.13;;;23.88
34310;BMP280;61664;48.112;11.662;2023-09-08T07:51:51;95844.28;;;24.08
34310;BMP280;61664;48.112;11.662;2023-09-08T07:54:18;95853.50;;;24.48
34310;BMP280;61664;48.112;11.662;2023-09-08T07:56:47;95853.00;;;25.58
34310;BMP280;61664;48.112;11.662;2023-09-08T07:59:14;95859.53;;;28.07
34310;BMP280;61664;48.112;11.662;2023-09-08T08:01:41;95858.53;;;30.75
34310;BMP280;61664;48.112;11.662;2023-09-08T08:04:08;95842.50;;;32.77
34310;BMP280;61664;48.112;11.662;2023-09-08T08:06:37;95855.25;;;34.12
34310;BMP280;61664;48.112;11.662;2023-09-08T08:09:04;95849.81;;;34.41
34310;BMP280;61664;48.112;11.662;2023-09-08T08:11:31;95852.28;;;34.35
34310;BMP280;61664;48.112;11.662;2023-09-08T08:13:58;95856.06;;;34.55
34310;BMP280;61664;48.112;11.662;2023-09-08T08:16:25;95859.06;;;35.34
34310;BMP280;61664;48.112;11.662;2023-09-08T08:18:52;95862.22;;;36.55
34310;BMP280;61664;48.112;11.662;2023-09-08T08:21:19;95860.84;;;37.64
34310;BMP280;61664;48.112;11.662;2023-09-08T08:23:46;95858.00;;;38.23
34310;BMP280;61664;48.112;11.662;2023-09-08T08:26:14;95859.19;;;38.18
34310;BMP280;61664;48.112;11.662;2023-09-08T08:28:41;95853.81;;;37.63
34310;BMP280;61664;48.112;11.662;2023-09-08T08:31:08;95863.38;;;36.66
34310;BMP280;61664;48.112;11.662;2023-09-08T08:33:35;95859.97;;;35.70
34310;BMP280;61664;48.112;11.662;2023-09-08T08:36:02;95860.09;;;35.11
34310;BMP280;61664;48.112;11.662;2023-09-08T08:38:30;95864.41;;;34.55
34310;BMP280;61664;48.112;11.662;2023-09-08T08:41:03;95861.13;;;34.04
34310;BMP280;61664;48.112;11.662;2023-09-08T08:43:32;95859.97;;;33.82
34310;BMP280;61664;48.112;11.662;2023-09-08T08:46:00;95858.97;;;34.03
34310;BMP280;61664;48.112;11.662;2023-09-08T08:48:29;95855.78;;;34.36
34310;BMP280;61664;48.112;11.662;2023-09-08T08:50:59;95853.88;;;34.97
34310;BMP280;61664;48.112;11.662;2023-09-08T08:53:27;95852.72;;;35.78
34310;BMP280;61664;48.112;11.662;2023-09-08T08:55:58;95856.34;;;36.83
34310;BMP280;61664;48.112;11.662;2023-09-08T08:58:27;95851.03;;;38.03
34310;BMP280;61664;48.112;11.662;2023-09-08T09:00:57;95851.97;;;39.22
34310;BMP280;61664;48.112;11.662;2023-09-08T09:03:29;95851.53;;;40.38
34310;BMP280;61664;48.112;11.662;2023-09-08T09:05:56;95851.56;;;41.35
34310;BMP280;61664;48.112;11.662;2023-09-08T09:08:24;95861.41;;;42.14
34310;BMP280;61664;48.112;11.662;2023-09-08T09:10:52;95849.75;;;42.80
34310;BMP280;61664;48.112;11.662;2023-09-08T09:13:19;95846.84;;;43.29
34310;BMP280;61664;48.112;11.662;2023-09-08T09:15:48;95850.28;;;43.22
34310;BMP280;61664;48.112;11.662;2023-09-08T09:18:16;95844.53;;;43.12
34310;BMP280;61664;48.112;11.662;2023-09-08T09:20:54;95846.09;;;43.25
34310;BMP280;61664;48.112;11.662;2023-09-08T09:23:33;95834.34;;;43.47
34310;BMP280;61664;48.112;11.662;2023-09-08T09:26:03;95845.91;;;43.75
34310;BMP280;61664;48.112;11.662;2023-09-08T09:28:33;95837.59;;;43.87
34310;BMP280;61664;48.112;11.662;2023-09-08T09:31:01;95837.00;;;44.05
34310;BMP280;61664;48.112;11.662;2023-09-08T09:33:29;95851.75;;;43.99
34310;BMP280;61664;48.112;11.662;2023-09-08T09:35:57;95841.28;;;44.12
34310;BMP280;61664;48.112;11.662;2023-09-08T09:38:27;95832.19;;;44.19
34310;BMP280;61664;48.112;11.662;2023-09-08T09:40:55;95832.91;;;44.22
34310;BMP280;61664;48.112;11.662;2023-09-08T09:43:22;95839.94;;;44.21
34310;BMP280;61664;48.112;11.662;2023-09-08T09:45:53;95835.66;;;44.12
34310;BMP280;61664;48.112;11.662;2023-09-08T09:48:23;95829.31;;;44.11
34310;BMP280;61664;48.112;11.662;2023-09-08T09:50:50;95830.00;;;44.10
34310;BMP280;61664;48.112;11.662;2023-09-08T09:53:20;95819.94;;;43.80
34310;BMP280;61664;48.112;11.662;2023-09-08T09:55:47;95821.91;;;43.66
34310;BMP280;61664;48.112;11.662;2023-09-08T09:58:14;95823.47;;;43.83
34310;BMP280;61664;48.112;11.662;2023-09-08T10:00:43;95825.03;;;44.04
34310;BMP280;61664;48.112;11.662;2023-09-08T10:03:16;95820.78;;;44.03
34310;BMP280;61664;48.112;11.662;2023-09-08T10:05:45;95817.22;;;43.96
34310;BMP280;61664;48.112;11.662;2023-09-08T10:08:14;95817.03;;;43.74
34310;BMP280;61664;48.112;11.662;2023-09-08T10:10:45;95825.16;;;43.38
34310;BMP280;61664;48.112;11.662;2023-09-08T10:13:18;95814.44;;;43.20
34310;BMP280;61664;48.112;11.662;2023-09-08T10:15:49;95808.72;;;43.12
34310;BMP280;61664;48.112;11.662;2023-09-08T10:18:19;95811.53;;;43.14
34310;BMP280;61664;48.112;11.662;2023-09-08T10:20:49;95802.94;;;42.98
34310;BMP280;61664;48.112;11.662;2023-09-08T10:23:43;95811.72;;;42.71
34310;BMP280;61664;48.112;11.662;2023-09-08T10:26:14;95807.53;;;42.24
34310;BMP280;61664;48.112;11.662;2023-09-08T10:28:44;95808.50;;;41.57
34310;BMP280;61664;48.112;11.662;2023-09-08T10:31:13;95811.59;;;40.99
34310;BMP280;61664;48.112;11.662;2023-09-08T10:33:42;95804.34;;;40.54
34310;BMP280;61664;48.112;11.662;2023-09-08T10:36:10;95810.31;;;40.11
34310;BMP280;61664;48.112;11.662;2023-09-08T10:38:38;95812.19;;;39.49
34310;BMP280;61664;48.112;11.662;2023-09-08T10:44:02;95792.53;;;37.65
34310;BMP280;61664;48.112;11.662;2023-09-08T10:46:32;95805.34;;;36.96
34310;BMP280;61664;48.112;11.662;2023-09-08T10:49:05;95801.38;;;36.30
34310;BMP280;61664;48.112;11.662;2023-09-08T10:51:36;95812.28;;;35.75
34310;BMP280;61664;48.112;11.662;2023-09-08T10:54:05;95804.53;;;35.11
34310;BMP280;61664;48.112;11.662;2023-09-08T10:56:55;95788.59;;;34.37
34310;BMP280;61664;48.112;11.662;2023-09-08T10:59:34;95793.16;;;33.90
34310;BMP280;61664;48.112;11.662;2023-09-08T11:02:05;95798.66;;;33.49
34310;BMP280;61664;48.112;11.662;2023-09-08T11:04:34;95797.84;;;33.08
34310;BMP280;61664;48.112;11.662;2023-09-08T11:07:02;95800.69;;;32.59
34310;BMP280;61664;48.112;11.662;2023-09-08T11:09:36;95799.44;;;32.14
34310;BMP280;61664;48.112;11.662;2023-09-08T11:12:05;95794.44;;;31.75
34310;BMP280;61664;48.112;11.662;2023-09-08T11:14:32;95787.03;;;31.45
34310;BMP280;61664;48.112;11.662;2023-09-08T11:17:03;95798.31;;;31.26
34310;BMP280;61664;48.112;11.662;2023-09-08T11:19:46;95802.78;;;30.98
34310;BMP280;61664;48.112;11.662;2023-09-08T11:22:15;95797.72;;;30.94
34310;BMP280;61664;48.112;11.662;2023-09-08T11:24:44;95796.75;;;30.90
34310;BMP280;61664;48.112;11.662;2023-09-08T11:27:12;95793.56;;;30.84
34310;BMP280;61664;48.112;11.662;2023-09-08T11:29:39;95805.16;;;30.71
34310;BMP280;61664;48.112;11.662;2023-09-08T11:32:10;95798.03;;;30.56
34310;BMP280;61664;48.112;11.662;2023-09-08T11:34:37;95787.50;;;30.43
34310;BMP280;61664;48.112;11.662;2023-09-08T11:37:12;95791.91;;;30.36
34310;BMP280;61664;48.112;11.662;2023-09-08T11:39:40;95791.91;;;30.36
34310;BMP280;61664;48.112;11.662;2023-09-08T11:42:10;95804.06;;;30.43
34310;BMP280;61664;48.112;11.662;2023-09-08T11:44:39;95797.56;;;30.38
34310;BMP280;61664;48.112;11.662;2023-09-08T11:47:08;95806.53;;;30.39
34310;BMP280;61664;48.112;11.662;2023-09-08T11:49:38;95798.88;;;30.37
34310;BMP280;61664;48.112;11.662;2023-09-08T11:52:06;95798.56;;;30.33
34310;BMP280;61664;48.112;11.662;2023-09-08T11:54:35;95788.16;;;30.32
34310;BMP280;61664;48.112;11.662;2023-09-08T11:57:09;95791.09;;;30.24
34310;BMP280;61664;48.112;11.662;2023-09-08T11:59:40;95783.41;;;30.23
34310;BMP280;61664;48.112;11.662;2023-09-08T12:02:07;95791.09;;;30.24
34310;BMP280;61664;48.112;11.662;2023-09-08T12:04:35;95789.91;;;30.27
34310;BMP280;61664;48.112;11.662;2023-09-08T12:07:03;95791.25;;;30.26
34310;BMP280;61664;48.112;11.662;2023-09-08T12:09:30;95790.22;;;30.22
34310;BMP280;61664;48.112;11.662;2023-09-08T12:12:02;95794.78;;;30.17
34310;BMP280;61664;48.112;11.662;2023-09-08T12:14:40;95786.09;;;30.11
34310;BMP280;61664;48.112;11.662;2023-09-08T12:17:08;95782.88;;;30.15
34310;BMP280;61664;48.112;11.662;2023-09-08T12:19:35;95781.00;;;30.17
34310;BMP280;61664;48.112;11.662;2023-09-08T12:22:07;95781.13;;;30.19
34310;BMP280;61664;48.112;11.662;2023-09-08T12:27:20;95784.03;;;30.21
34310;BMP280;61664;48.112;11.662;2023-09-08T12:29:58;95782.13;;;30.24
34310;BMP280;61664;48.112;11.662;2023-09-08T12:32:28;95780.97;;;30.27
34310;BMP280;61664;48.112;11.662;2023-09-08T12:34:56;95785.13;;;30.28
34310;BMP280;61664;48.112;11.662;2023-09-08T12:37:25;95758.97;;;30.17
34310;BMP280;61664;48.112;11.662;2023-09-08T12:39:54;95785.41;;;30.32
34310;BMP280;61664;48.112;11.662;2023-09-08T12:42:22;95784.06;;;30.33
34310;BMP280;61664;48.112;11.662;2023-09-08T12:44:53;95771.25;;;30.26
34310;BMP280;61664;48.112;11.662;2023-09-08T12:47:20;95771.50;;;30.30
34310;BMP280;61664;48.112;11.662;2023-09-08T12:49:47;95772.19;;;30.30
34310;BMP280;61664;48.112;11.662;2023-09-08T12:52:14;95766.69;;;30.30
34310;BMP280;61664;48.112;11.662;2023-09-08T12:54:40;95767.41;;;30.31
34310;BMP280;61664;48.112;11.662;2023-09-08T12:57:07;95769.59;;;30.32
34310;BMP280;61664;48.112;11.662;2023-09-08T12:59:34;95772.47;;;30.34
34310;BMP280;61664;48.112;11.662;2023-09-08T13:02:01;95759.75;;;30.29
34310;BMP280;61664;48.112;11.662;2023-09-08T13:04:28;95764.34;;;30.36
34310;BMP280;61664;48.112;11.662;2023-09-08T13:06:55;95770.66;;;30.48
34310;BMP280;61664;48.112;11.662;2023-09-08T13:09:25;95776.69;;;30.56
34310;BMP280;61664;48.112;11.662;2023-09-08T13:11:52;95771.91;;;30.57
34310;BMP280;61664;48.112;11.662;2023-09-08T13:14:19;95770.38;;;30.66
34310;BMP280;61664;48.112;11.662;2023-09-08T13:16:46;95768.00;;;30.72
34310;BMP280;61664;48.112;11.662;2023-09-08T13:19:13;95767.69;;;30.77
34310;BMP280;61664;48.112;11.662;2023-09-08T13:21:39;95767.19;;;30.81
34310;BMP280;61664;48.112;11.662;2023-09-08T13:24:07;95760.47;;;30.84
34310;BMP280;61664;48.112;11.662;2023-09-08T13:26:34;95766.28;;;30.88
34310;BMP280;61664;48.112;11.662;2023-09-08T13:29:01;95762.56;;;30.95
34310;BMP280;61664;48.112;11.662;2023-09-08T13:31:28;95765.25;;;31.04
34310;BMP280;61664;48.112;11.662;2023-09-08T13:33:55;95761.19;;;31.17
34310;BMP280;61664;48.112;11.662;2023-09-08T13:36:22;95756.06;;;31.35
34310;BMP280;61664;48.112;11.662;2023-09-08T13:38:49;95753.47;;;31.60
34310;BMP280;61664;48.112;11.662;2023-09-08T13:41:16;95746.31;;;32.27
34310;BMP280;61664;48.112;11.662;2023-09-08T13:43:43;95744.16;;;33.26
34310;BMP280;61664;48.112;11.662;2023-09-08T13:46:13;95740.91;;;33.98
34310;BMP280;61664;48.112;11.662;2023-09-08T13:48:40;95742.31;;;34.55
34310;BMP280;61664;48.112;11.662;2023-09-08T13:51:09;95748.25;;;35.24
34310;BMP280;61664;48.112;11.662;2023-09-08T13:53:37;95737.66;;;35.85
34310;BMP280;61664;48.112;11.662;2023-09-08T13:56:07;95741.03;;;36.17
34310;BMP280;61664;48.112;11.662;2023-09-08T13:58:35;95726.38;;;36.32
34310;BMP280;61664;48.112;11.662;2023-09-08T14:01:16;95729.63;;;36.82
34310;BMP280;61664;48.112;11.662;2023-09-08T14:03:46;95738.25;;;37.47
34310;BMP280;61664;48.112;11.662;2023-09-08T14:06:16;95718.81;;;38.12
34310;BMP280;61664;48.112;11.662;2023-09-08T14:08:47;95740.53;;;38.84
34310;BMP280;61664;48.112;11.662;2023-09-08T14:11:35;95737.56;;;39.53
34310;BMP280;61664;48.112;11.662;2023-09-08T14:14:22;95729.97;;;40.15